Time;durP1;ratioP1;P1;durP2;ratioP2;P2;SDS_P1;SDS_P2;PMS_P1;PMS_P2;Temp;Humidity;BMP_temperature;BMP_pressure;BME280_temperature;BME280_humidity;BME280_pressure;Samples;Min_cycle;Max_cycle;Signal;HPM_P1;HPM_P2
2022/01/18 00:00:36;;;;;;;29.63;4.80;;;5.10;99.90;;;;;;6212483;23;20461;-56
2022/01/18 00:03:02;;;;;;;22.50;4.83;;;5.10;99.90;;;;;;6211448;23;20828;-56
2022/01/18 00:05:28;;;;;;;23.27;3.77;;;5.10;99.90;;;;;;6212270;23;20378;-55
2022/01/18 00:07:54;;;;;;;30.13;4.70;;;5.10;99.90;;;;;;6211549;23;20385;-56
2022/01/18 00:10:23;;;;;;;28.07;4.77;;;5.10;38.60;;;;;;6212431;23;20645;-56
2022/01/18 00:15:39;;;;;;;36.47;4.70;;;5.20;99.90;;;;;;6221745;23;20366;-56
2022/01/18 00:18:12;;;;;;;30.70;4.30;;;5.20;99.90;;;;;;6212182;23;20357;-56
2022/01/18 00:23:05;;;;;;;21.30;3.60;;;5.20;1.00;;;;;;6212120;23;20813;-56
2022/01/18 00:25:33;;;;;;;22.77;3.60;;;5.20;99.90;;;;;;6185129;23;20405;-56
2022/01/18 00:28:00;;;;;;;22.90;3.70;;;5.20;1.00;;;;;;6211603;23;20166;-56
2022/01/18 00:30:53;;;;;;;21.53;3.33;;;5.20;99.90;;;;;;6185051;23;20464;-56
2022/01/18 00:33:18;;;;;;;25.70;4.40;;;5.30;1.00;;;;;;6212044;23;20503;-55
2022/01/18 00:35:46;;;;;;;30.73;2.80;;;5.30;99.90;;;;;;6211648;23;20366;-56
2022/01/18 00:38:17;;;;;;;25.47;3.40;;;5.30;1.00;;;;;;6211271;23;20401;-55
2022/01/18 00:40:43;;;;;;;15.00;2.80;;;5.30;99.90;;;;;;6211897;23;20419;-56
2022/01/18 00:43:08;;;;;;;17.33;3.00;;;5.40;99.90;;;;;;6211211;23;20374;-59
2022/01/18 00:45:34;;;;;;;14.07;3.03;;;5.40;97.50;;;;;;6210455;22;20214;-47
2022/01/18 00:48:01;;;;;;;14.87;3.60;;;5.40;99.90;;;;;;6210507;23;20189;-47
2022/01/18 00:50:30;;;;;;;24.27;3.20;;;5.50;44.90;;;;;;6210748;23;20170;-47
2022/01/18 00:52:56;;;;;;;16.37;2.13;;;5.50;1.00;;;;;;6211321;23;20386;-47
2022/01/18 00:55:23;;;;;;;16.97;3.10;;;5.50;99.90;;;;;;6211020;23;20365;-47
2022/01/18 00:57:48;;;;;;;25.43;2.90;;;5.50;99.90;;;;;;6211920;23;20362;-47
2022/01/18 01:00:14;;;;;;;16.87;2.50;;;5.50;1.00;;;;;;6211111;23;20445;-47
2022/01/18 01:02:40;;;;;;;10.93;2.13;;;5.40;1.00;;;;;;6211680;23;20876;-48
2022/01/18 01:05:05;;;;;;;15.47;2.43;;;5.50;99.90;;;;;;6210873;23;20723;-47
2022/01/18 01:07:31;;;;;;;7.20;1.73;;;5.50;99.90;;;;;;6210731;23;20154;-47
2022/01/18 01:09:56;;;;;;;12.53;2.40;;;5.50;93.90;;;;;;6212017;23;20253;-47
2022/01/18 01:12:25;;;;;;;12.30;2.33;;;5.50;99.90;;;;;;6212061;23;20139;-47
2022/01/18 01:14:52;;;;;;;14.30;2.50;;;5.60;99.90;;;;;;6211748;23;20233;-47
2022/01/18 01:36:32;;;;;;;15.67;2.23;;;5.50;1.00;;;;;;6211794;23;20819;-47
2022/01/18 01:42:03;;;;;;;23.30;2.53;;;5.50;99.90;;;;;;6211847;23;20365;-47
2022/01/18 01:44:45;;;;;;;11.03;1.87;;;5.60;99.90;;;;;;6210199;23;20527;-47
2022/01/18 01:47:17;;;;;;;23.83;2.60;;;5.60;99.90;;;;;;6211467;23;20396;-47
2022/01/18 01:49:44;;;;;;;17.57;2.70;;;5.60;1.00;;;;;;6211484;23;20425;-47
2022/01/18 01:52:11;;;;;;;9.53;1.87;;;5.60;1.00;;;;;;6213579;23;20435;-47
2022/01/18 01:54:38;;;;;;;20.80;2.97;;;5.60;99.90;;;;;;6213515;23;20369;-47
2022/01/18 01:57:05;;;;;;;10.83;2.23;;;5.60;88.00;;;;;;6213596;23;20358;-47
2022/01/18 01:59:30;;;;;;;19.03;2.20;;;5.60;99.90;;;;;;6212991;23;20392;-50
2022/01/18 02:01:56;;;;;;;17.40;2.97;;;5.60;79.60;;;;;;6213339;23;20373;-47
2022/01/18 02:04:22;;;;;;;15.07;2.13;;;5.60;99.90;;;;;;6213501;23;20217;-48
2022/01/18 02:06:47;;;;;;;9.17;1.87;;;5.60;1.00;;;;;;6212915;23;20233;-47
2022/01/18 02:09:13;;;;;;;9.83;2.10;;;5.60;1.00;;;;;;6213512;23;20475;-48
2022/01/18 02:11:39;;;;;;;13.80;1.97;;;5.60;99.90;;;;;;6213235;23;20178;-47
2022/01/18 02:14:13;;;;;;;9.07;2.00;;;5.60;1.00;;;;;;6213077;23;20158;-47
2022/01/18 02:22:09;;;;;;;10.40;1.87;;;5.60;1.00;;;;;;6213351;23;20361;-47
2022/01/18 02:24:35;;;;;;;14.57;2.20;;;5.60;1.00;;;;;;6212873;23;20370;-47
2022/01/18 02:27:01;;;;;;;8.97;2.57;;;5.60;1.00;;;;;;6213303;23;20186;-48
2022/01/18 02:29:26;;;;;;;6.43;1.80;;;5.60;99.90;;;;;;6212501;23;20503;-48
2022/01/18 02:31:54;;;;;;;10.27;1.73;;;5.60;1.00;;;;;;6213391;23;20158;-48
2022/01/18 02:34:20;;;;;;;17.73;2.00;;;5.60;99.90;;;;;;6212927;23;20197;-47
2022/01/18 02:36:46;;;;;;;6.37;1.93;;;5.60;99.90;;;;;;6213215;23;20412;-47
2022/01/18 02:39:17;;;;;;;14.13;1.90;;;5.60;1.00;;;;;;6213029;23;20362;-48
2022/01/18 02:41:43;;;;;;;11.23;1.90;;;5.70;1.00;;;;;;6213054;23;20441;-48
2022/01/18 02:44:13;;;;;;;13.50;1.77;;;5.70;99.90;;;;;;6212571;23;20793;-47
2022/01/18 02:46:41;;;;;;;7.63;1.57;;;5.70;1.00;;;;;;6212898;23;20151;-48
2022/01/18 02:49:07;;;;;;;12.53;1.90;;;5.70;99.90;;;;;;6213273;23;20460;-48
2022/01/18 02:51:34;;;;;;;16.30;2.10;;;5.80;99.90;;;;;;6185956;23;20540;-47
2022/01/18 02:54:05;;;;;;;13.43;1.97;;;5.80;1.00;;;;;;6212917;23;20146;-48
2022/01/18 02:56:34;;;;;;;10.97;1.57;;;5.80;1.00;;;;;;6212778;23;20374;-60
2022/01/18 02:59:12;;;;;;;5.40;1.60;;;5.80;1.00;;;;;;6212757;23;20772;-47
2022/01/18 03:04:22;;;;;;;6.50;1.40;;;5.80;1.00;;;;;;6212858;23;20365;-47
2022/01/18 03:06:48;;;;;;;5.97;1.73;;;5.80;1.00;;;;;;6186478;23;21077;-47
2022/01/18 03:09:14;;;;;;;5.10;1.60;;;5.80;1.00;;;;;;6213058;23;20154;-47
2022/01/18 03:11:39;;;;;;;11.60;1.50;;;5.90;1.00;;;;;;6212431;23;20206;-48
2022/01/18 03:14:05;;;;;;;12.67;2.10;;;5.90;96.50;;;;;;6212471;23;20408;-47
2022/01/18 03:16:31;;;;;;;6.30;1.10;;;6.00;1.00;;;;;;6212994;23;20154;-48
2022/01/18 03:18:56;;;;;;;3.30;1.30;;;6.00;99.90;;;;;;6212318;23;20834;-47
2022/01/18 03:21:22;;;;;;;11.63;1.90;;;6.00;99.90;;;;;;6212647;23;20158;-47
2022/01/18 03:23:52;;;;;;;13.40;2.17;;;5.90;2.70;;;;;;6212901;23;20147;-47
2022/01/18 03:26:18;;;;;;;6.00;1.60;;;5.90;99.90;;;;;;6211738;23;20223;-58
2022/01/18 03:28:45;;;;;;;6.60;1.50;;;6.00;1.00;;;;;;6212879;23;20371;-58
2022/01/18 03:31:11;;;;;;;15.00;2.03;;;6.00;1.00;;;;;;6212432;23;20437;-58
2022/01/18 03:33:36;;;;;;;7.90;1.50;;;6.00;99.90;;;;;;6212055;23;20776;-58
2022/01/18 03:36:05;;;;;;;8.37;2.17;;;6.00;1.00;;;;;;6212467;23;20572;-58
2022/01/18 03:38:30;;;;;;;12.50;1.70;;;6.00;99.90;;;;;;6212789;23;20150;-58
2022/01/18 03:41:01;;;;;;;6.17;1.23;;;6.00;1.00;;;;;;6212420;23;20857;-58
2022/01/18 03:43:29;;;;;;;13.40;1.50;;;6.00;99.90;;;;;;6211980;23;20585;-58
2022/01/18 03:46:00;;;;;;;7.87;1.60;;;6.00;99.90;;;;;;6212012;23;20909;-58
2022/01/18 03:48:37;;;;;;;8.70;1.60;;;6.00;99.90;;;;;;6212517;23;20869;-58
2022/01/18 03:51:05;;;;;;;11.90;1.83;;;6.00;99.90;;;;;;6212246;23;20522;-57
2022/01/18 03:53:30;;;;;;;9.20;1.50;;;5.90;1.00;;;;;;6212179;23;20374;-58
2022/01/18 03:55:57;;;;;;;8.57;1.90;;;5.90;99.90;;;;;;6212177;23;20886;-58
2022/01/18 03:58:22;;;;;;;8.33;1.93;;;5.90;1.00;;;;;;6212647;23;20257;-58
2022/01/18 04:00:49;;;;;;;7.83;1.80;;;5.90;1.00;;;;;;6212013;23;20827;-58
2022/01/18 04:03:15;;;;;;;17.00;1.50;;;6.00;1.00;;;;;;6212117;23;20170;-53
2022/01/18 04:05:41;;;;;;;5.70;1.33;;;6.00;1.00;;;;;;6212237;23;20448;-58
2022/01/18 04:08:07;;;;;;;3.90;1.50;;;6.00;99.90;;;;;;6212210;23;20373;-58
2022/01/18 04:10:32;;;;;;;5.70;1.60;;;5.90;99.90;;;;;;6212214;23;20208;-58
2022/01/18 04:12:59;;;;;;;6.43;1.67;;;6.00;99.90;;;;;;6211915;23;20447;-53
2022/01/18 04:15:24;;;;;;;5.73;1.40;;;6.00;99.90;;;;;;6212342;23;20170;-58
2022/01/18 04:18:10;;;;;;;11.70;1.47;;;6.00;99.90;;;;;;6212003;23;20386;-58
2022/01/18 04:28:54;;;;;;;5.90;1.30;;;6.00;1.00;;;;;;6151018;23;20386;-59
2022/01/18 04:31:21;;;;;;;9.53;1.43;;;6.00;1.00;;;;;;6211766;23;20417;-58
2022/01/18 04:33:46;;;;;;;5.40;1.23;;;6.00;99.90;;;;;;6211632;23;20381;-58
2022/01/18 04:36:12;;;;;;;4.07;1.13;;;6.00;1.00;;;;;;6211884;23;20416;-58
2022/01/18 04:38:38;;;;;;;2.30;1.40;;;6.00;1.00;;;;;;6211958;23;20168;-58
2022/01/18 04:41:07;;;;;;;6.23;1.17;;;6.00;99.90;;;;;;6211863;23;20142;-58
2022/01/18 04:48:48;;;;;;;9.07;1.87;;;5.90;1.00;;;;;;6211942;23;20815;-58
2022/01/18 04:51:13;;;;;;;4.70;1.40;;;6.00;51.50;;;;;;6211684;23;20425;-58
2022/01/18 04:53:44;;;;;;;8.37;1.30;;;5.90;99.90;;;;;;6211812;23;20245;-58
2022/01/18 04:56:15;;;;;;;11.90;1.80;;;5.90;99.90;;;;;;6211644;23;20138;-58
2022/01/18 04:58:41;;;;;;;4.60;1.33;;;6.00;1.00;;;;;;6211528;23;20456;-59
2022/01/18 05:01:08;;;;;;;12.77;1.60;;;6.00;1.00;;;;;;6212051;23;20468;-58
2022/01/18 05:03:34;;;;;;;4.83;1.20;;;6.00;1.00;;;;;;6212116;23;20445;-58
2022/01/18 05:06:07;;;;;;;13.73;1.40;;;6.00;1.00;;;;;;6211140;23;20523;-58
2022/01/18 05:08:33;;;;;;;5.80;1.07;;;6.10;1.00;;;;;;6211613;23;20396;-58
2022/01/18 05:10:59;;;;;;;10.20;1.70;;;6.10;99.40;;;;;;6211764;23;20891;-58
2022/01/18 05:19:37;;;;;;;16.00;1.80;;;6.10;1.00;;;;;;6221630;23;20373;-57
2022/01/18 05:21:29;;;;;;;5.70;1.83;;;6.00;1.00;;;;;;6190223;23;20389;-58
2022/01/18 05:23:55;;;;;;;10.50;1.53;;;6.00;7.00;;;;;;6211780;23;20440;-57
2022/01/18 05:26:21;;;;;;;5.53;1.77;;;6.00;99.90;;;;;;6211529;23;20385;-57
2022/01/18 05:28:47;;;;;;;14.27;1.57;;;5.90;22.90;;;;;;6211444;23;20200;-57
2022/01/18 05:31:13;;;;;;;7.63;1.80;;;6.00;99.90;;;;;;6211051;23;20850;-58
2022/01/18 05:33:40;;;;;;;9.33;2.17;;;5.90;99.90;;;;;;6211616;23;20373;-57
2022/01/18 05:36:06;;;;;;;8.00;1.83;;;5.90;99.90;;;;;;6211246;23;20372;-56
2022/01/18 05:38:33;;;;;;;9.10;2.73;;;5.90;99.90;;;;;;6211263;23;20397;-57
2022/01/18 05:40:59;;;;;;;11.63;2.27;;;5.80;99.90;;;;;;6211458;23;20378;-55
2022/01/18 05:43:25;;;;;;;9.30;2.40;;;5.80;99.90;;;;;;6211707;23;20369;-57
2022/01/18 05:45:50;;;;;;;14.13;2.60;;;5.80;99.90;;;;;;6211440;23;20981;-57
2022/01/18 05:48:16;;;;;;;9.77;2.27;;;5.80;99.90;;;;;;6211709;23;20232;-57
2022/01/18 05:50:41;;;;;;;36.60;3.63;;;5.80;99.90;;;;;;6211156;23;20205;-57
2022/01/18 05:53:07;;;;;;;9.70;3.50;;;5.80;1.00;;;;;;6211129;23;20146;-57
2022/01/18 05:55:33;;;;;;;10.93;2.97;;;5.90;1.00;;;;;;6211508;23;20178;-57
2022/01/18 05:57:58;;;;;;;15.30;3.37;;;6.00;72.90;;;;;;6211601;23;20135;-57
2022/01/18 06:00:26;;;;;;;12.53;3.00;;;5.90;99.90;;;;;;6211559;23;20146;-57
2022/01/18 06:08:11;;;;;;;18.73;4.80;;;5.90;99.90;;;;;;6211380;23;20369;-56
2022/01/18 06:10:37;;;;;;;14.67;4.00;;;5.90;1.00;;;;;;6211554;23;20460;-57
2022/01/18 06:13:04;;;;;;;19.67;3.83;;;5.90;1.00;;;;;;6185010;23;20382;-56
2022/01/18 06:15:30;;;;;;;18.40;4.07;;;5.90;1.00;;;;;;6211146;23;20228;-56
2022/01/18 06:17:56;;;;;;;23.00;6.00;;;5.90;1.00;;;;;;6211520;23;20378;-57
2022/01/18 06:20:22;;;;;;;27.80;4.50;;;5.90;1.00;;;;;;6210885;23;20523;-56
2022/01/18 06:22:51;;;;;;;22.73;5.20;;;5.90;1.00;;;;;;6211068;23;20162;-57
2022/01/18 06:25:18;;;;;;;21.20;4.97;;;5.90;12.60;;;;;;6211319;23;20474;-57
2022/01/18 06:27:44;;;;;;;18.43;4.70;;;5.90;27.30;;;;;;6211353;23;20927;-56
2022/01/18 06:30:10;;;;;;;22.63;5.57;;;5.90;70.20;;;;;;6211950;23;20457;-56
2022/01/18 06:32:40;;;;;;;28.27;4.80;;;5.90;76.00;;;;;;6211104;23;20370;-57
2022/01/18 06:35:07;;;;;;;15.90;5.07;;;6.00;94.40;;;;;;6210735;23;20455;-56
2022/01/18 06:37:34;;;;;;;22.37;5.57;;;6.00;99.90;;;;;;6212829;23;20416;-56
2022/01/18 06:40:01;;;;;;;26.47;4.83;;;6.00;99.90;;;;;;6213221;23;20370;-57
2022/01/18 06:42:27;;;;;;;28.60;6.43;;;6.10;99.90;;;;;;6212832;23;20362;-56
2022/01/18 06:44:53;;;;;;;32.20;6.80;;;6.10;99.90;;;;;;6212743;23;20567;-57
2022/01/18 06:47:19;;;;;;;48.27;6.67;;;6.10;99.90;;;;;;6186373;23;20265;-56
2022/01/18 06:49:44;;;;;;;24.43;5.07;;;6.10;99.90;;;;;;6212843;23;20402;-57
2022/01/18 06:52:10;;;;;;;35.60;7.13;;;6.10;99.90;;;;;;6213117;23;20161;-56
2022/01/18 06:54:36;;;;;;;37.00;6.57;;;6.10;99.90;;;;;;6213318;23;20142;-56
2022/01/18 06:57:03;;;;;;;32.23;6.50;;;6.10;99.90;;;;;;6213056;23;20388;-57
2022/01/18 06:59:28;;;;;;;22.83;5.37;;;6.10;99.90;;;;;;6212520;23;20757;-56
2022/01/18 07:01:54;;;;;;;27.47;5.83;;;6.10;99.90;;;;;;6213063;23;20378;-56
2022/01/18 07:04:20;;;;;;;31.40;6.00;;;6.10;99.90;;;;;;6212285;23;20209;-56
2022/01/18 07:06:46;;;;;;;42.73;7.10;;;6.10;99.90;;;;;;6212779;23;20166;-56
2022/01/18 07:09:13;;;;;;;45.80;5.90;;;6.10;99.90;;;;;;6213214;23;20378;-56
2022/01/18 07:11:39;;;;;;;21.50;5.77;;;6.10;99.90;;;;;;6212727;23;20216;-56
2022/01/18 07:14:04;;;;;;;26.90;5.37;;;6.10;99.90;;;;;;6212639;23;20472;-56
2022/01/18 07:16:30;;;;;;;32.67;6.20;;;6.10;99.90;;;;;;6212453;23;20456;-56
2022/01/18 07:18:56;;;;;;;29.23;4.90;;;6.10;99.90;;;;;;6212471;23;20245;-56
2022/01/18 07:21:21;;;;;;;36.57;6.33;;;6.10;99.90;;;;;;6212616;23;20154;-56
2022/01/18 07:23:47;;;;;;;26.87;5.03;;;6.10;99.90;;;;;;6212095;23;20157;-57
2022/01/18 07:26:12;;;;;;;47.13;6.00;;;6.10;99.90;;;;;;6211965;23;20168;-56
2022/01/18 07:28:38;;;;;;;32.57;6.20;;;6.20;99.90;;;;;;6185800;23;20162;-56
2022/01/18 07:31:04;;;;;;;28.00;5.30;;;6.10;99.90;;;;;;6212818;23;20232;-54
2022/01/18 07:33:29;;;;;;;28.20;5.23;;;6.10;99.90;;;;;;6212338;23;20284;-56
2022/01/18 07:35:55;;;;;;;29.60;7.40;;;6.20;99.90;;;;;;6211672;23;20580;-56
2022/01/18 07:38:20;;;;;;;31.03;6.10;;;6.20;99.90;;;;;;6212455;23;20233;-56
2022/01/18 07:40:49;;;;;;;38.30;6.30;;;6.20;99.90;;;;;;6212286;23;20166;-56
2022/01/18 07:43:17;;;;;;;20.80;5.40;;;6.20;99.90;;;;;;6212068;23;20146;-56
2022/01/18 07:45:48;;;;;;;40.17;5.13;;;6.20;99.90;;;;;;6212177;23;20449;-56
2022/01/18 07:48:14;;;;;;;30.67;5.67;;;6.20;99.90;;;;;;6211264;23;20401;-56
2022/01/18 07:50:40;;;;;;;32.83;6.17;;;6.20;99.90;;;;;;6186218;23;20512;-57
2022/01/18 07:53:06;;;;;;;31.97;5.50;;;6.20;99.90;;;;;;6212591;23;20382;-55
2022/01/18 07:55:32;;;;;;;34.70;7.13;;;6.20;99.90;;;;;;6212394;23;21128;-56
2022/01/18 07:57:59;;;;;;;24.83;5.33;;;6.20;99.90;;;;;;6212092;23;20519;-56
2022/01/18 08:00:25;;;;;;;28.83;5.90;;;6.30;99.90;;;;;;6212214;23;20165;-57
2022/01/18 08:02:50;;;;;;;31.73;5.57;;;6.30;99.90;;;;;;6212256;23;20394;-55
2022/01/18 08:05:16;;;;;;;35.40;6.73;;;6.30;99.90;;;;;;6211630;23;20162;-48
2022/01/18 08:07:42;;;;;;;42.03;6.43;;;6.30;99.90;;;;;;6212092;23;20150;-48
2022/01/18 08:10:10;;;;;;;30.80;5.40;;;6.40;99.90;;;;;;6211914;23;20177;-48
2022/01/18 08:12:35;;;;;;;31.17;5.10;;;6.40;99.90;;;;;;6212485;23;20162;-48
2022/01/18 08:15:12;;;;;;;44.47;5.30;;;6.40;99.90;;;;;;6209466;23;20748;-48
2022/01/18 08:17:37;;;;;;;35.20;5.70;;;6.50;99.90;;;;;;6209504;23;20149;-47
2022/01/18 08:20:03;;;;;;;41.50;5.50;;;6.50;99.90;;;;;;6210865;23;20382;-47
2022/01/18 08:22:29;;;;;;;37.47;6.00;;;6.50;99.90;;;;;;6211971;23;20143;-47
2022/01/18 08:24:54;;;;;;;37.67;6.23;;;6.50;99.90;;;;;;6211826;23;20681;-48
2022/01/18 08:27:21;;;;;;;26.20;5.40;;;6.50;99.90;;;;;;6212386;23;20154;-47
2022/01/18 08:29:47;;;;;;;39.20;5.47;;;6.50;99.90;;;;;;6211532;23;20232;-49
2022/01/18 08:32:12;;;;;;;61.43;6.93;;;6.50;99.90;;;;;;6211371;23;20405;-47
2022/01/18 08:34:38;;;;;;;28.60;5.23;;;6.50;99.90;;;;;;6211852;23;20389;-47
2022/01/18 08:37:04;;;;;;;35.80;5.20;;;6.60;99.90;;;;;;6211640;23;20213;-53
2022/01/18 08:39:29;;;;;;;26.73;5.33;;;6.60;99.90;;;;;;6211891;23;20504;-48
2022/01/18 08:41:55;;;;;;;37.33;6.80;;;6.70;99.90;;;;;;6211391;23;20165;-48
2022/01/18 08:44:21;;;;;;;24.53;6.47;;;6.70;99.90;;;;;;6210931;23;20223;-47
2022/01/18 08:46:46;;;;;;;33.47;5.40;;;6.70;99.90;;;;;;6212062;23;20151;-47
2022/01/18 08:49:12;;;;;;;38.60;4.73;;;6.70;99.90;;;;;;6211393;23;20151;-48
2022/01/18 08:51:37;;;;;;;26.67;4.47;;;6.70;99.90;;;;;;6211874;23;20217;-47
2022/01/18 08:54:04;;;;;;;43.60;6.57;;;6.70;99.90;;;;;;6212074;23;20187;-48
2022/01/18 08:56:30;;;;;;;43.13;4.77;;;6.70;99.90;;;;;;6211721;23;20143;-47
2022/01/18 08:58:57;;;;;;;35.77;4.67;;;6.70;99.90;;;;;;6211640;23;20871;-47
2022/01/18 09:01:23;;;;;;;28.03;5.43;;;6.70;99.90;;;;;;6211135;23;20464;-47
2022/01/18 09:03:50;;;;;;;43.33;6.40;;;6.80;99.90;;;;;;6211282;23;20926;-48
2022/01/18 09:06:16;;;;;;;28.97;4.20;;;6.80;99.90;;;;;;6211764;23;20908;-48
2022/01/18 09:08:43;;;;;;;26.70;4.30;;;6.80;99.90;;;;;;6210285;23;21038;-54
2022/01/18 09:11:11;;;;;;;32.73;4.87;;;6.90;99.90;;;;;;6210932;23;20421;-47
2022/01/18 09:13:38;;;;;;;27.43;4.67;;;6.90;99.90;;;;;;6211284;23;20389;-47
2022/01/18 09:16:06;;;;;;;33.37;4.60;;;6.90;99.90;;;;;;6212184;23;20358;-48
2022/01/18 09:18:32;;;;;;;34.63;4.20;;;6.90;99.90;;;;;;6211115;23;20377;-47
2022/01/18 09:20:58;;;;;;;30.03;4.40;;;6.90;99.90;;;;;;6211603;23;20384;-48
2022/01/18 09:23:23;;;;;;;31.53;5.53;;;6.90;99.90;;;;;;6211258;23;20386;-48
2022/01/18 09:25:49;;;;;;;31.40;4.47;;;6.90;99.90;;;;;;6211524;23;20155;-48
2022/01/18 09:28:15;;;;;;;21.53;4.27;;;6.90;99.90;;;;;;6210967;23;20572;-48
2022/01/18 09:30:40;;;;;;;34.90;5.70;;;6.90;99.90;;;;;;6210777;23;20674;-48
2022/01/18 09:33:06;;;;;;;28.10;4.43;;;6.90;99.90;;;;;;6211771;23;20147;-47
2022/01/18 09:35:36;;;;;;;22.83;5.57;;;6.90;99.90;;;;;;6211265;23;20201;-48
2022/01/18 09:38:03;;;;;;;21.07;3.87;;;7.00;99.90;;;;;;6211918;23;20164;-47
2022/01/18 09:40:30;;;;;;;25.20;4.00;;;7.00;99.90;;;;;;6211641;23;20461;-48
2022/01/18 09:43:00;;;;;;;19.73;3.23;;;7.10;99.90;;;;;;6209919;23;20378;-49
2022/01/18 09:45:28;;;;;;;16.30;3.30;;;7.70;99.90;;;;;;6210296;23;20547;-49
2022/01/18 09:47:56;;;;;;;23.33;3.97;;;8.50;99.90;;;;;;6212240;23;20205;-49
2022/01/18 09:50:29;;;;;;;16.13;2.70;;;9.10;99.90;;;;;;6212083;23;20429;-49
2022/01/18 09:52:56;;;;;;;17.23;3.80;;;9.30;99.90;;;;;;6212253;23;20354;-49
2022/01/18 09:55:24;;;;;;;23.07;3.73;;;9.60;98.70;;;;;;6212068;23;20464;-49
2022/01/18 09:57:50;;;;;;;15.03;3.53;;;9.70;75.80;;;;;;6211805;23;20381;-49
2022/01/18 10:00:16;;;;;;;14.63;3.43;;;9.70;1.00;;;;;;6212148;23;20362;-49
2022/01/18 10:02:42;;;;;;;16.87;3.07;;;9.70;1.00;;;;;;6211684;23;20166;-49
2022/01/18 10:05:18;;;;;;;20.17;3.70;;;9.70;99.90;;;;;;6211726;23;20670;-49
2022/01/18 10:07:45;;;;;;;20.40;3.03;;;9.70;1.00;;;;;;6210919;23;20146;-50
2022/01/18 10:10:10;;;;;;;14.10;3.20;;;9.80;99.90;;;;;;6212072;23;20845;-49
2022/01/18 10:12:36;;;;;;;18.53;3.80;;;9.70;1.00;;;;;;6213877;23;20362;-49
2022/01/18 10:15:04;;;;;;;14.07;3.00;;;9.80;4.70;;;;;;6212958;23;20189;-49
2022/01/18 10:17:32;;;;;;;19.90;3.70;;;10.00;1.00;;;;;;6213879;23;20143;-49
2022/01/18 10:20:14;;;;;;;13.50;3.50;;;9.90;99.90;;;;;;6212531;23;20444;-48
2022/01/18 10:22:42;;;;;;;18.20;2.90;;;10.20;99.90;;;;;;6213526;23;20358;-49
2022/01/18 10:25:25;;;;;;;19.00;3.83;;;10.40;99.90;;;;;;6213001;23;20384;-49
2022/01/18 10:27:53;;;;;;;13.40;2.70;;;10.70;99.90;;;;;;6213382;23;20385;-50
2022/01/18 10:30:32;;;;;;;13.60;3.10;;;10.80;19.70;;;;;;6213158;23;20425;-49
2022/01/18 10:33:19;;;;;;;20.80;2.80;;;10.60;92.50;;;;;;6213260;23;20796;-50
2022/01/18 10:36:14;;;;;;;15.83;3.20;;;10.50;99.90;;;;;;6213187;23;20371;-48
2022/01/18 10:38:44;;;;;;;13.20;2.57;;;10.30;1.00;;;;;;6212872;23;20360;-48
2022/01/18 10:41:28;;;;;;;19.70;3.33;;;9.80;1.00;;;;;;6212829;23;20428;-47
2022/01/18 10:44:11;;;;;;;12.73;3.03;;;9.30;99.90;;;;;;6213466;23;20397;-47
2022/01/18 10:46:59;;;;;;;22.80;4.30;;;8.90;99.90;;;;;;6212930;23;20755;-48
2022/01/18 10:49:40;;;;;;;17.97;4.67;;;8.70;1.00;;;;;;6211745;23;20397;-48
2022/01/18 10:52:15;;;;;;;20.10;4.60;;;8.50;1.00;;;;;;6212646;23;20380;-48
2022/01/18 10:54:41;;;;;;;17.50;3.57;;;8.30;99.90;;;;;;6213004;23;20389;-47
2022/01/18 10:57:11;;;;;;;16.40;3.23;;;8.20;99.90;;;;;;6213321;23;20362;-47
2022/01/18 10:59:38;;;;;;;19.13;3.83;;;8.10;1.00;;;;;;6212859;23;20154;-47
2022/01/18 11:02:13;;;;;;;15.67;2.60;;;8.10;99.90;;;;;;6213064;23;20427;-47
2022/01/18 11:04:53;;;;;;;18.50;4.07;;;8.00;1.00;;;;;;6212909;23;20349;-47
2022/01/18 11:07:22;;;;;;;17.23;2.33;;;8.10;14.20;;;;;;6212541;23;20376;-47
2022/01/18 11:09:48;;;;;;;16.70;2.57;;;8.00;1.00;;;;;;6212816;23;21040;-48
2022/01/18 11:12:14;;;;;;;14.87;2.50;;;7.90;99.90;;;;;;6213132;23;20828;-48
2022/01/18 11:14:44;;;;;;;19.27;2.73;;;8.00;99.90;;;;;;6213197;23;20384;-47
2022/01/18 11:17:22;;;;;;;18.47;3.63;;;7.90;99.90;;;;;;6212977;23;20358;-48
2022/01/18 11:19:48;;;;;;;13.23;2.83;;;8.00;1.00;;;;;;6211922;23;20390;-48
2022/01/18 11:22:15;;;;;;;10.40;2.30;;;8.10;1.00;;;;;;6211899;23;20438;-48
2022/01/18 11:24:44;;;;;;;21.03;2.83;;;8.10;1.00;;;;;;6213141;23;20396;-48
2022/01/18 11:27:13;;;;;;;9.93;2.50;;;8.10;1.00;;;;;;6212449;23;20376;-47
2022/01/18 11:29:41;;;;;;;10.97;2.43;;;8.10;99.90;;;;;;6212191;23;20388;-48
2022/01/18 11:32:09;;;;;;;21.87;3.13;;;8.00;99.90;;;;;;6213054;23;20412;-47
2022/01/18 11:35:06;;;;;;;14.67;2.90;;;7.90;1.00;;;;;;6212169;23;20495;-47
2022/01/18 11:37:40;;;;;;;12.87;2.50;;;7.80;1.00;;;;;;6213053;23;20377;-48
2022/01/18 11:40:11;;;;;;;23.20;3.30;;;7.80;99.90;;;;;;6212660;23;20360;-48
2022/01/18 11:42:50;;;;;;;16.73;2.27;;;7.80;99.90;;;;;;6212765;23;20745;-48
2022/01/18 11:45:25;;;;;;;12.60;2.60;;;7.80;99.90;;;;;;6212420;23;20475;-48
2022/01/18 11:48:04;;;;;;;12.13;2.20;;;7.70;1.00;;;;;;6212722;23;20365;-48
2022/01/18 11:50:33;;;;;;;18.53;2.63;;;7.70;1.00;;;;;;6211915;23;20441;-47
2022/01/18 11:54:17;;;;;;;15.97;3.30;;;7.80;1.00;;;;;;6212781;23;20366;-49
2022/01/18 11:56:12;;;;;;;11.17;2.00;;;7.80;1.00;;;;;;6196557;23;20886;-48
2022/01/18 11:58:38;;;;;;;8.00;1.97;;;7.80;1.00;;;;;;6211888;23;20374;-48
2022/01/18 12:01:04;;;;;;;11.80;1.93;;;7.80;1.00;;;;;;6212534;23;20400;-47
2022/01/18 12:03:41;;;;;;;12.63;2.07;;;7.80;1.00;;;;;;6212391;23;20370;-48
2022/01/18 12:06:06;;;;;;;11.47;2.50;;;7.80;1.00;;;;;;6212520;23;20146;-48
2022/01/18 12:08:42;;;;;;;11.57;2.20;;;7.70;1.00;;;;;;6211602;23;20396;-48
2022/01/18 12:11:29;;;;;;;7.13;2.23;;;7.70;1.00;;;;;;6211721;23;20235;-49
2022/01/18 12:14:00;;;;;;;9.40;2.00;;;7.70;1.00;;;;;;6211721;23;20473;-48
2022/01/18 12:16:30;;;;;;;7.90;1.97;;;7.80;95.70;;;;;;6212121;23;20378;-48
2022/01/18 12:19:05;;;;;;;12.00;3.67;;;7.70;61.50;;;;;;6211817;23;20385;-48
2022/01/18 12:21:33;;;;;;;7.90;2.10;;;7.70;26.70;;;;;;6212046;23;20465;-48
2022/01/18 12:24:14;;;;;;;10.43;2.27;;;7.70;99.90;;;;;;6212175;23;20394;-48
2022/01/18 12:26:44;;;;;;;4.77;1.90;;;7.70;99.90;;;;;;6212546;23;20409;-48
2022/01/18 12:34:40;;;;;;;5.60;2.23;;;7.70;1.00;;;;;;6222342;23;20377;-48
2022/01/18 12:37:13;;;;;;;6.63;2.10;;;7.70;1.00;;;;;;6211393;23;20400;-48
2022/01/18 12:39:52;;;;;;;10.53;2.17;;;7.60;1.00;;;;;;6212132;23;20350;-48
2022/01/18 12:44:20;;;;;;;3.40;1.90;;;7.60;45.60;;;;;;6211710;23;20404;-48
2022/01/18 12:45:16;;;;;;;7.80;2.37;;;7.70;61.30;;;;;;6211392;23;20476;-48
2022/01/18 12:47:44;;;;;;;13.07;2.40;;;7.60;99.90;;;;;;6211887;23;20449;-47
2022/01/18 12:50:11;;;;;;;6.10;1.90;;;7.50;99.90;;;;;;6211353;23;20412;-47
2022/01/18 12:52:46;;;;;;;11.13;2.20;;;7.60;1.00;;;;;;6211411;23;20424;-48
2022/01/18 12:55:35;;;;;;;6.60;2.30;;;7.60;96.80;;;;;;6211642;23;20695;-48
2022/01/18 12:58:19;;;;;;;7.37;2.20;;;7.60;1.00;;;;;;6211546;23;21075;-47
2022/01/18 13:01:00;;;;;;;8.00;2.67;;;7.40;92.10;;;;;;6211870;23;20483;-48
2022/01/18 13:03:34;;;;;;;7.53;2.63;;;7.40;99.90;;;;;;6211679;23;20362;-48
2022/01/18 13:06:09;;;;;;;7.27;2.23;;;7.40;1.00;;;;;;6212220;23;20373;-48
2022/01/18 13:08:44;;;;;;;8.10;2.33;;;7.40;1.00;;;;;;6211025;23;20357;-48
2022/01/18 13:11:12;;;;;;;4.60;2.30;;;7.40;1.00;;;;;;6212249;23;20413;-48
2022/01/18 13:13:38;;;;;;;3.83;2.00;;;7.40;1.00;;;;;;6211595;23;20834;-48
2022/01/18 13:27:10;;;;;;;4.80;2.50;;;7.30;99.90;;;;;;6222121;23;21196;-52
2022/01/18 13:29:36;;;;;;;4.77;2.40;;;7.30;99.90;;;;;;6212029;23;20365;-48
2022/01/18 13:32:11;;;;;;;9.83;2.20;;;7.30;99.90;;;;;;6210711;23;20748;-48
2022/01/18 13:34:39;;;;;;;6.70;2.20;;;7.30;99.90;;;;;;6211240;23;20368;-48
2022/01/18 13:37:11;;;;;;;7.73;2.60;;;7.20;1.00;;;;;;6211716;23;20366;-48
2022/01/18 13:39:46;;;;;;;6.17;2.50;;;7.20;1.00;;;;;;6212133;23;20369;-48
2022/01/18 13:42:15;;;;;;;6.83;3.07;;;7.20;1.00;;;;;;6211579;23;20388;-49
2022/01/18 13:45:08;;;;;;;6.40;2.93;;;7.20;1.00;;;;;;6211056;23;20533;-48
2022/01/18 13:47:51;;;;;;;3.67;2.70;;;7.20;16.50;;;;;;6212921;23;20369;-48
2022/01/18 13:50:35;;;;;;;9.50;2.77;;;7.20;15.90;;;;;;6213287;23;20413;-47
2022/01/18 13:53:28;;;;;;;40.23;5.13;;;7.10;99.90;;;;;;6213827;23;20393;-49
2022/01/18 13:56:07;;;;;;;7.30;2.97;;;7.10;99.90;;;;;;6201153;23;20397;-48
2022/01/18 13:58:36;;;;;;;3.20;2.23;;;7.10;1.00;;;;;;6213306;23;20357;-48
2022/01/18 14:01:17;;;;;;;6.47;2.97;;;7.00;65.00;;;;;;6213490;23;20471;-48
2022/01/18 14:03:48;;;;;;;8.50;3.53;;;7.00;1.00;;;;;;6213769;23;20846;-48
2022/01/18 14:06:16;;;;;;;7.80;3.00;;;7.00;15.90;;;;;;6213596;23;20385;-48
2022/01/18 14:08:52;;;;;;;6.90;2.80;;;6.90;99.90;;;;;;6213270;23;20366;-48
2022/01/18 14:11:23;;;;;;;4.10;3.43;;;6.90;99.90;;;;;;6213312;23;20426;-48
2022/01/18 14:13:51;;;;;;;9.70;3.90;;;6.90;99.90;;;;;;6213711;23;20370;-48
2022/01/18 14:16:23;;;;;;;4.97;3.03;;;6.80;99.90;;;;;;6213634;23;20397;-48
2022/01/18 14:18:56;;;;;;;7.60;4.10;;;6.90;99.90;;;;;;6213061;23;20911;-48